Time;durP1;ratioP1;P1;durP2;ratioP2;P2;SDS_P1;SDS_P2;PMS_P1;PMS_P2;Temp;Humidity;BMP_temperature;BMP_pressure;BME280_temperature;BME280_humidity;BME280_pressure;Samples;Min_cycle;Max_cycle;Signal;HPM_P1;HPM_P2
2023/10/02 00:01:58;;;;;;;0.50;0.50;;;;;;;;;;4956354;28;20034;-62
2023/10/02 00:04:26;;;;;;;0.50;0.50;;;;;;;;;;4951876;28;20383;-63
2023/10/02 00:07:05;;;;;;;0.50;0.50;;;;;;;;;;4952246;28;20030;-66
2023/10/02 00:09:33;;;;;;;0.60;0.60;;;;;;;;;;4952967;28;20030;-63
2023/10/02 00:12:01;;;;;;;0.57;0.57;;;;;;;;;;4960208;28;20035;-64
2023/10/02 00:14:34;;;;;;;0.50;0.50;;;;;;;;;;4952949;28;20042;-63
2023/10/02 00:17:03;;;;;;;;;;;;;;;;;;;;;
2023/10/02 00:19:39;;;;;;;0.50;0.50;;;;;;;;;;4958414;28;20026;-63
2023/10/02 00:22:57;;;;;;;0.55;0.55;;;;;;;;;;4958602;28;20042;-63
2023/10/02 00:24:57;;;;;;;0.50;0.50;;;;;;;;;;4954610;28;20074;-64
2023/10/02 00:27:23;;;;;;;0.50;0.50;;;;;;;;;;4957569;28;20061;-62
2023/10/02 00:29:51;;;;;;;0.50;0.50;;;;;;;;;;4961413;28;20104;-62
2023/10/02 00:32:19;;;;;;;0.52;0.52;;;;;;;;;;4954651;28;20098;-63
2023/10/02 00:34:48;;;;;;;0.50;0.50;;;;;;;;;;4950642;28;20031;-64
2023/10/02 00:37:13;;;;;;;0.60;0.60;;;;;;;;;;4954399;28;20555;-62
2023/10/02 00:39:47;;;;;;;0.50;0.50;;;;;;;;;;4958718;28;20038;-63
2023/10/02 00:42:16;;;;;;;0.50;0.50;;;;;;;;;;4958264;28;20345;-63
2023/10/02 00:44:55;;;;;;;0.55;0.55;;;;;;;;;;4956624;28;20054;-63
2023/10/02 00:47:42;;;;;;;0.50;0.50;;;;;;;;;;4959564;28;20028;-64
2023/10/02 00:50:11;;;;;;;0.50;0.50;;;;;;;;;;4954890;28;20624;-63
2023/10/02 00:52:55;;;;;;;0.50;0.50;;;;;;;;;;4955375;28;20437;-64
2023/10/02 00:55:25;;;;;;;0.52;0.52;;;;;;;;;;4952496;28;20117;-64
2023/10/02 00:57:51;;;;;;;0.40;0.40;;;;;;;;;;4952343;28;20058;-65
2023/10/02 01:00:17;;;;;;;0.60;0.60;;;;;;;;;;4959742;28;20421;-63
2023/10/02 01:05:16;;;;;;;0.50;0.50;;;;;;;;;;4918939;29;20557;-63
2023/10/02 01:07:42;;;;;;;0.60;0.60;;;;;;;;;;4925990;29;20032;-60
2023/10/02 01:10:11;;;;;;;0.50;0.50;;;;;;;;;;4924486;29;20057;-63
2023/10/02 01:12:43;;;;;;;0.50;0.50;;;;;;;;;;4925928;29;20039;-59
2023/10/02 01:15:12;;;;;;;0.50;0.50;;;;;;;;;;4920632;29;20040;-60
2023/10/02 01:17:39;;;;;;;0.60;0.60;;;;;;;;;;4921242;29;20549;-63
2023/10/02 01:20:14;;;;;;;0.50;0.50;;;;;;;;;;4924480;29;20123;-63
2023/10/02 01:22:43;;;;;;;0.60;0.60;;;;;;;;;;4927174;29;20538;-61
2023/10/02 01:25:15;;;;;;;0.50;0.50;;;;;;;;;;4909519;29;20132;-61
2023/10/02 01:27:42;;;;;;;0.60;0.60;;;;;;;;;;4925059;29;20501;-61
2023/10/02 01:30:16;;;;;;;0.50;0.50;;;;;;;;;;4923828;29;20035;-61
2023/10/02 01:33:11;;;;;;;0.60;0.60;;;;;;;;;;4922683;29;20039;-63
2023/10/02 01:35:37;;;;;;;0.50;0.50;;;;;;;;;;4919777;29;20063;-60
2023/10/02 01:38:15;;;;;;;0.50;0.50;;;;;;;;;;4925730;29;20099;-62
2023/10/02 01:40:54;;;;;;;0.60;0.60;;;;;;;;;;4932649;29;20039;-60
2023/10/02 01:43:24;;;;;;;0.60;0.60;;;;;;;;;;4944703;29;20489;-59
2023/10/02 01:45:54;;;;;;;0.60;0.60;;;;;;;;;;4940683;29;20050;-60
2023/10/02 01:48:37;;;;;;;0.52;0.52;;;;;;;;;;4947915;29;20031;-61
2023/10/02 01:53:54;;;;;;;0.60;0.60;;;;;;;;;;4945847;29;20398;-62
2023/10/02 01:56:20;;;;;;;0.60;0.60;;;;;;;;;;4942597;29;20039;-59
2023/10/02 01:58:47;;;;;;;0.60;0.60;;;;;;;;;;4943756;29;20030;-59
2023/10/02 02:01:13;;;;;;;;;;;;;;;;;;4941151;29;20039;-59
2023/10/02 02:03:39;;;;;;;0.57;0.57;;;;;;;;;;4922007;29;19978;-60
2023/10/02 02:06:11;;;;;;;0.60;0.60;;;;;;;;;;4947726;29;20537;-59
2023/10/02 02:08:37;;;;;;;0.60;0.60;;;;;;;;;;4927454;29;20031;-60
2023/10/02 02:11:16;;;;;;;0.60;0.60;;;;;;;;;;4946751;29;20027;-63
2023/10/02 02:13:45;;;;;;;0.60;0.60;;;;;;;;;;4940395;29;20363;-61
2023/10/02 02:16:25;;;;;;;0.60;0.60;;;;;;;;;;4941947;29;20627;-61
2023/10/02 02:18:53;;;;;;;0.60;0.60;;;;;;;;;;4943637;29;20031;-60
2023/10/02 02:21:23;;;;;;;0.60;0.60;;;;;;;;;;4946434;29;20023;-62
2023/10/02 02:24:03;;;;;;;0.60;0.60;;;;;;;;;;4942363;28;20490;-62
2023/10/02 02:26:30;;;;;;;0.60;0.60;;;;;;;;;;4925310;29;20512;-62
2023/10/02 02:28:56;;;;;;;0.52;0.52;;;;;;;;;;4942067;29;20464;-61
2023/10/02 02:31:30;;;;;;;0.50;0.50;;;;;;;;;;4940692;29;20031;-62
2023/10/02 02:34:04;;;;;;;0.50;0.50;;;;;;;;;;4944881;29;20508;-60
2023/10/02 02:36:35;;;;;;;0.60;0.60;;;;;;;;;;4939420;29;20032;-61
2023/10/02 02:39:22;;;;;;;0.60;0.60;;;;;;;;;;4941082;28;20071;-63
2023/10/02 02:41:47;;;;;;;0.60;0.60;;;;;;;;;;4945141;29;20118;-62
2023/10/02 02:44:36;;;;;;;0.60;0.60;;;;;;;;;;4928710;29;20118;-61
2023/10/02 02:47:07;;;;;;;0.60;0.60;;;;;;;;;;4940626;28;20602;-61
2023/10/02 02:49:32;;;;;;;0.60;0.60;;;;;;;;;;4944898;29;20038;-60
2023/10/02 02:51:58;;;;;;;0.60;0.60;;;;;;;;;;4944064;29;20039;-60
2023/10/02 02:54:25;;;;;;;0.60;0.60;;;;;;;;;;4943236;28;20043;-60
2023/10/02 02:56:58;;;;;;;0.70;0.70;;;;;;;;;;4943911;29;20383;-61
2023/10/02 02:59:26;;;;;;;0.50;0.50;;;;;;;;;;4924947;29;20042;-62
2023/10/02 03:01:52;;;;;;;0.60;0.60;;;;;;;;;;4948217;29;20421;-61
2023/10/02 03:04:18;;;;;;;0.60;0.60;;;;;;;;;;4927154;29;20122;-62
2023/10/02 03:06:43;;;;;;;0.50;0.50;;;;;;;;;;4939539;29;20106;-62
2023/10/02 03:09:09;;;;;;;0.60;0.60;;;;;;;;;;4939602;29;20040;-61
2023/10/02 03:11:34;;;;;;;0.60;0.60;;;;;;;;;;4945663;29;20031;-60
2023/10/02 03:14:16;;;;;;;0.60;0.60;;;;;;;;;;4940294;29;20038;-61
2023/10/02 03:16:45;;;;;;;0.60;0.60;;;;;;;;;;4940784;29;20038;-60
2023/10/02 03:19:13;;;;;;;0.60;0.60;;;;;;;;;;4923876;29;20042;-59
2023/10/02 03:21:40;;;;;;;0.60;0.60;;;;;;;;;;4941188;28;20039;-60
2023/10/02 03:24:07;;;;;;;0.60;0.60;;;;;;;;;;4945469;28;20775;-60
2023/10/02 03:29:02;;;;;;;0.60;0.60;;;;;;;;;;4945382;29;20104;-61
2023/10/02 03:31:36;;;;;;;0.60;0.60;;;;;;;;;;4942048;29;20027;-60
2023/10/02 03:34:24;;;;;;;0.60;0.60;;;;;;;;;;4939506;28;20087;-64
2023/10/02 03:36:48;;;;;;;0.60;0.60;;;;;;;;;;4941774;28;20038;-62
2023/10/02 03:39:23;;;;;;;0.60;0.60;;;;;;;;;;4946388;29;20028;-61
2023/10/02 03:41:49;;;;;;;0.60;0.60;;;;;;;;;;4945426;29;20117;-61
2023/10/02 03:44:15;;;;;;;0.63;0.63;;;;;;;;;;4942098;29;20028;-62
2023/10/02 03:46:42;;;;;;;0.70;0.70;;;;;;;;;;4941381;28;20553;-63
2023/10/02 03:49:08;;;;;;;0.60;0.60;;;;;;;;;;4920027;29;20434;-59
2023/10/02 03:51:37;;;;;;;0.60;0.60;;;;;;;;;;4950448;29;20493;-61
2023/10/02 03:54:17;;;;;;;0.60;0.60;;;;;;;;;;4946563;28;20031;-60
2023/10/02 03:56:51;;;;;;;0.60;0.60;;;;;;;;;;4947280;29;20040;-61
2023/10/02 03:59:27;;;;;;;0.60;0.60;;;;;;;;;;4947446;29;20035;-61
2023/10/02 04:02:24;;;;;;;0.60;0.60;;;;;;;;;;4948236;29;20039;-61
2023/10/02 04:04:44;;;;;;;0.60;0.60;;;;;;;;;;4945883;28;20118;-59
2023/10/02 04:07:11;;;;;;;0.60;0.60;;;;;;;;;;4947167;28;20106;-59
2023/10/02 04:09:36;;;;;;;0.60;0.60;;;;;;;;;;4945702;29;20040;-64
2023/10/02 04:12:04;;;;;;;0.60;0.60;;;;;;;;;;4947016;29;20027;-61
2023/10/02 04:14:32;;;;;;;0.60;0.60;;;;;;;;;;4948128;29;20023;-61
2023/10/02 04:17:13;;;;;;;0.60;0.60;;;;;;;;;;4944148;28;20104;-62
2023/10/02 04:19:40;;;;;;;0.60;0.60;;;;;;;;;;4941017;28;20118;-62
2023/10/02 04:22:15;;;;;;;0.60;0.60;;;;;;;;;;4945648;28;20023;-60
2023/10/02 04:32:39;;;;;;;0.60;0.60;;;;;;;;;;4926744;29;20044;-60
2023/10/02 04:35:40;;;;;;;0.60;0.60;;;;;;;;;;4945618;28;20038;-61
2023/10/02 04:37:51;;;;;;;0.60;0.60;;;;;;;;;;4944991;29;20033;-62
2023/10/02 04:40:22;;;;;;;0.60;0.60;;;;;;;;;;4928807;29;20027;-62
2023/10/02 04:43:19;;;;;;;0.60;0.60;;;;;;;;;;4945597;28;20098;-60
2023/10/02 04:45:44;;;;;;;0.60;0.60;;;;;;;;;;4938052;29;20541;-63
2023/10/02 04:48:10;;;;;;;0.70;0.70;;;;;;;;;;4938448;28;20035;-61
2023/10/02 04:50:45;;;;;;;0.60;0.60;;;;;;;;;;4938700;28;20035;-61
2023/10/02 04:55:41;;;;;;;0.60;0.60;;;;;;;;;;4939590;29;20039;-61
2023/10/02 05:00:39;;;;;;;0.60;0.60;;;;;;;;;;4941666;28;20031;-61
2023/10/02 05:03:25;;;;;;;0.60;0.60;;;;;;;;;;4941411;28;20495;-63
2023/10/02 05:05:53;;;;;;;0.60;0.60;;;;;;;;;;4941257;28;20047;-61
2023/10/02 05:08:20;;;;;;;0.60;0.60;;;;;;;;;;4941700;29;20036;-61
2023/10/02 05:10:50;;;;;;;0.60;0.60;;;;;;;;;;4938860;29;20032;-62
2023/10/02 05:13:44;;;;;;;0.60;0.60;;;;;;;;;;4943323;29;20110;-61
2023/10/02 05:16:12;;;;;;;0.60;0.60;;;;;;;;;;4936466;28;20704;-63
2023/10/02 05:18:38;;;;;;;0.70;0.70;;;;;;;;;;4941704;29;20159;-61
2023/10/02 05:21:04;;;;;;;0.60;0.60;;;;;;;;;;4940341;28;20035;-60
2023/10/02 05:23:30;;;;;;;0.50;0.50;;;;;;;;;;4946679;28;20055;-61
2023/10/02 05:26:00;;;;;;;0.60;0.60;;;;;;;;;;4948427;28;20089;-60
2023/10/02 05:28:29;;;;;;;0.60;0.60;;;;;;;;;;4942188;28;20027;-61
2023/10/02 05:31:07;;;;;;;0.60;0.60;;;;;;;;;;4943911;28;20046;-62
2023/10/02 05:33:36;;;;;;;0.60;0.60;;;;;;;;;;4945728;28;20119;-61
2023/10/02 05:36:06;;;;;;;0.60;0.60;;;;;;;;;;4944975;28;20023;-61
2023/10/02 05:38:33;;;;;;;0.63;0.63;;;;;;;;;;4946373;28;20043;-62
2023/10/02 05:40:58;;;;;;;0.60;0.60;;;;;;;;;;4944469;28;20039;-61
2023/10/02 05:43:24;;;;;;;0.60;0.60;;;;;;;;;;4945739;28;20051;-61
2023/10/02 05:45:50;;;;;;;0.60;0.60;;;;;;;;;;4940316;29;20047;-62
2023/10/02 05:50:52;;;;;;;0.60;0.60;;;;;;;;;;4940123;28;20035;-61
2023/10/02 05:53:32;;;;;;;0.60;0.60;;;;;;;;;;4938688;29;20485;-62
2023/10/02 05:56:04;;;;;;;0.57;0.57;;;;;;;;;;4937777;29;20036;-61
2023/10/02 05:58:34;;;;;;;0.60;0.60;;;;;;;;;;4938066;29;20448;-62
2023/10/02 06:01:06;;;;;;;0.63;0.63;;;;;;;;;;4940238;29;20546;-62
2023/10/02 06:03:35;;;;;;;0.55;0.55;;;;;;;;;;4937942;29;20094;-61
2023/10/02 06:06:18;;;;;;;0.60;0.60;;;;;;;;;;4935621;29;20052;-61
2023/10/02 06:08:43;;;;;;;0.60;0.60;;;;;;;;;;4925948;29;20062;-60
2023/10/02 06:11:25;;;;;;;0.60;0.60;;;;;;;;;;4937439;28;20058;-61
2023/10/02 06:13:51;;;;;;;0.60;0.60;;;;;;;;;;4939621;28;20089;-61
2023/10/02 06:16:16;;;;;;;0.60;0.60;;;;;;;;;;4938497;29;20043;-62
2023/10/02 06:18:41;;;;;;;0.60;0.60;;;;;;;;;;4941692;29;20039;-62
2023/10/02 06:21:06;;;;;;;0.60;0.60;;;;;;;;;;4937812;28;20035;-61
2023/10/02 06:23:38;;;;;;;0.60;0.60;;;;;;;;;;4922383;29;20035;-61
2023/10/02 06:26:10;;;;;;;0.60;0.60;;;;;;;;;;4936899;29;20075;-63
2023/10/02 06:28:36;;;;;;;0.50;0.50;;;;;;;;;;4940703;29;20489;-61
2023/10/02 06:31:02;;;;;;;0.60;0.60;;;;;;;;;;4938193;29;20086;-62
2023/10/02 06:33:27;;;;;;;0.60;0.60;;;;;;;;;;4938485;29;20048;-62
2023/10/02 06:35:57;;;;;;;0.50;0.50;;;;;;;;;;4936967;29;20035;-61
2023/10/02 06:38:23;;;;;;;0.55;0.55;;;;;;;;;;4941935;29;20035;-59
2023/10/02 06:40:57;;;;;;;0.50;0.50;;;;;;;;;;4938551;28;20453;-61
2023/10/02 06:43:32;;;;;;;0.60;0.60;;;;;;;;;;4937849;29;20035;-61
2023/10/02 06:46:10;;;;;;;0.57;0.57;;;;;;;;;;4938246;28;20158;-61
2023/10/02 06:48:36;;;;;;;0.50;0.50;;;;;;;;;;4940907;28;20119;-59
2023/10/02 06:51:01;;;;;;;0.50;0.50;;;;;;;;;;4939333;28;20122;-60
2023/10/02 06:53:27;;;;;;;0.50;0.50;;;;;;;;;;4922623;29;20043;-60
2023/10/02 06:55:58;;;;;;;0.50;0.50;;;;;;;;;;4918472;29;20143;-61
2023/10/02 06:58:29;;;;;;;0.50;0.50;;;;;;;;;;4920857;29;20101;-63
2023/10/02 07:01:01;;;;;;;0.50;0.50;;;;;;;;;;4938617;29;20038;-62
2023/10/02 07:03:27;;;;;;;0.50;0.50;;;;;;;;;;4939643;29;20039;-61
2023/10/02 07:05:52;;;;;;;0.40;0.40;;;;;;;;;;4937547;28;20059;-61
2023/10/02 07:08:18;;;;;;;0.47;0.47;;;;;;;;;;4939258;29;20762;-61
2023/10/02 07:10:48;;;;;;;0.40;0.40;;;;;;;;;;4937967;29;20038;-61
2023/10/02 07:13:20;;;;;;;0.40;0.40;;;;;;;;;;4936304;29;20035;-61
2023/10/02 07:15:55;;;;;;;0.40;0.40;;;;;;;;;;4919174;29;20110;-62
2023/10/02 07:18:21;;;;;;;0.40;0.40;;;;;;;;;;4935760;29;20031;-61
2023/10/02 07:20:52;;;;;;;0.45;0.45;;;;;;;;;;4936004;28;20040;-62
2023/10/02 07:23:22;;;;;;;0.40;0.40;;;;;;;;;;4919113;29;20090;-62
2023/10/02 07:25:50;;;;;;;0.40;0.40;;;;;;;;;;4935414;29;20048;-60
2023/10/02 07:28:21;;;;;;;0.40;0.40;;;;;;;;;;4937431;29;20111;-60
2023/10/02 07:30:46;;;;;;;0.40;0.40;;;;;;;;;;4937539;29;20035;-62
2023/10/02 07:33:12;;;;;;;0.30;0.30;;;;;;;;;;4937758;29;20368;-61
2023/10/02 07:35:37;;;;;;;0.30;0.30;;;;;;;;;;4939278;28;20102;-61
2023/10/02 07:38:08;;;;;;;0.40;0.40;;;;;;;;;;4938047;29;20442;-60
2023/10/02 07:40:49;;;;;;;0.40;0.40;;;;;;;;;;4928898;29;20040;-61
2023/10/02 07:43:14;;;;;;;0.30;0.30;;;;;;;;;;4936510;29;20088;-61
2023/10/02 07:45:39;;;;;;;0.30;0.30;;;;;;;;;;4936766;29;20125;-62
2023/10/02 07:48:12;;;;;;;0.30;0.30;;;;;;;;;;4935565;29;20401;-61
2023/10/02 07:50:39;;;;;;;0.30;0.30;;;;;;;;;;4936703;28;20032;-61
2023/10/02 07:53:06;;;;;;;0.40;0.40;;;;;;;;;;4938357;29;20032;-60
2023/10/02 07:55:32;;;;;;;;;;;;;;;;;;4936880;28;20398;-61
2023/10/02 07:58:04;;;;;;;0.30;0.30;;;;;;;;;;4937702;29;19918;-61
2023/10/02 08:00:37;;;;;;;0.30;0.30;;;;;;;;;;4940767;29;20058;-60
2023/10/02 08:03:04;;;;;;;0.30;0.30;;;;;;;;;;4937695;28;20548;-61
2023/10/02 08:05:33;;;;;;;0.30;0.30;;;;;;;;;;4941013;29;20052;-60
2023/10/02 08:08:10;;;;;;;0.30;0.30;;;;;;;;;;4936025;29;20043;-60
2023/10/02 08:10:52;;;;;;;0.30;0.30;;;;;;;;;;4934237;29;20040;-60
2023/10/02 08:13:32;;;;;;;0.30;0.30;;;;;;;;;;4935868;29;20032;-60
2023/10/02 08:15:58;;;;;;;0.30;0.30;;;;;;;;;;4936176;29;20051;-60
2023/10/02 08:18:24;;;;;;;0.30;0.30;;;;;;;;;;4937031;29;20560;-60
2023/10/02 08:20:50;;;;;;;0.30;0.30;;;;;;;;;;4936235;29;20132;-61
2023/10/02 08:23:21;;;;;;;0.30;0.30;;;;;;;;;;4938122;29;20138;-61
2023/10/02 08:26:02;;;;;;;0.20;0.20;;;;;;;;;;4935140;29;20082;-62
2023/10/02 08:28:34;;;;;;;0.22;0.22;;;;;;;;;;4934719;29;20040;-60
2023/10/02 08:31:02;;;;;;;0.20;0.20;;;;;;;;;;4937830;29;20798;-60
2023/10/02 08:33:31;;;;;;;0.22;0.22;;;;;;;;;;4936380;29;20042;-61
2023/10/02 08:36:01;;;;;;;0.20;0.20;;;;;;;;;;4923401;29;20043;-61
2023/10/02 08:38:27;;;;;;;0.20;0.20;;;;;;;;;;4943656;29;20035;-61
2023/10/02 08:40:59;;;;;;;0.20;0.20;;;;;;;;;;4908175;29;20035;-61
2023/10/02 08:43:25;;;;;;;0.20;0.20;;;;;;;;;;4942379;29;20038;-61
2023/10/02 08:45:50;;;;;;;0.20;0.20;;;;;;;;;;4940323;29;20043;-61
2023/10/02 08:48:19;;;;;;;0.20;0.20;;;;;;;;;;4937661;29;20387;-61
2023/10/02 08:50:47;;;;;;;0.17;0.17;;;;;;;;;;4941114;28;20042;-61
2023/10/02 08:53:19;;;;;;;0.20;0.20;;;;;;;;;;4924757;29;20039;-61
2023/10/02 08:58:18;;;;;;;0.20;0.20;;;;;;;;;;4938880;29;20027;-62
2023/10/02 09:01:01;;;;;;;0.20;0.20;;;;;;;;;;4938345;28;20046;-60
2023/10/02 09:03:26;;;;;;;0.10;0.10;;;;;;;;;;4940571;28;20080;-61
2023/10/02 09:06:22;;;;;;;0.20;0.20;;;;;;;;;;4944112;29;20798;-61
2023/10/02 09:09:12;;;;;;;0.13;0.13;;;;;;;;;;4943879;29;20126;-63
2023/10/02 09:11:29;;;;;;;0.10;0.10;;;;;;;;;;4942997;29;20827;-63
2023/10/02 09:14:12;;;;;;;0.10;0.10;;;;;;;;;;4943336;29;20039;-62
2023/10/02 09:16:38;;;;;;;0.10;0.10;;;;;;;;;;4923469;29;20047;-63
2023/10/02 09:19:28;;;;;;;0.20;0.20;;;;;;;;;;4940027;29;20049;-60
2023/10/02 09:22:06;;;;;;;0.10;0.10;;;;;;;;;;4939988;29;20390;-62
2023/10/02 09:24:31;;;;;;;0.20;0.20;;;;;;;;;;4939562;29;20032;-64
2023/10/02 09:27:20;;;;;;;0.20;0.20;;;;;;;;;;4941148;29;20904;-61
2023/10/02 09:29:45;;;;;;;0.10;0.10;;;;;;;;;;4938950;29;20047;-60
2023/10/02 09:32:21;;;;;;;0.10;0.10;;;;;;;;;;4939274;29;20111;-61
2023/10/02 09:35:08;;;;;;;0.10;0.10;;;;;;;;;;4941076;29;20046;-61
2023/10/02 09:37:35;;;;;;;0.10;0.10;;;;;;;;;;4940675;29;20040;-61
2023/10/02 09:40:04;;;;;;;0.20;0.20;;;;;;;;;;4939284;29;20032;-60
2023/10/02 09:42:33;;;;;;;0.10;0.10;;;;;;;;;;4939945;29;20090;-61
2023/10/02 09:45:08;;;;;;;0.10;0.10;;;;;;;;;;4940601;29;20048;-64
2023/10/02 09:47:34;;;;;;;0.10;0.10;;;;;;;;;;4939901;28;20041;-63
2023/10/02 09:50:12;;;;;;;0.10;0.10;;;;;;;;;;4941447;28;20373;-60
2023/10/02 09:52:47;;;;;;;0.10;0.10;;;;;;;;;;4936508;29;20086;-63
2023/10/02 09:55:18;;;;;;;0.10;0.10;;;;;;;;;;4939986;29;20035;-60
2023/10/02 09:57:49;;;;;;;0.10;0.10;;;;;;;;;;4939571;29;20039;-62
2023/10/02 10:03:22;;;;;;;0.10;0.10;;;;;;;;;;4942310;29;20050;-60
2023/10/02 10:06:06;;;;;;;0.10;0.10;;;;;;;;;;4921302;29;20493;-61
2023/10/02 10:09:18;;;;;;;0.10;0.10;;;;;;;;;;4937535;29;20084;-61
2023/10/02 10:11:36;;;;;;;0.10;0.10;;;;;;;;;;4938265;29;20054;-62
2023/10/02 10:14:35;;;;;;;0.10;0.10;;;;;;;;;;4939057;29;20035;-61
2023/10/02 10:17:12;;;;;;;0.10;0.10;;;;;;;;;;4939573;29;20038;-61
2023/10/02 10:19:38;;;;;;;0.10;0.10;;;;;;;;;;4939165;29;20039;-63
2023/10/02 10:22:10;;;;;;;0.10;0.10;;;;;;;;;;4940225;29;20039;-62
2023/10/02 10:24:55;;;;;;;0.10;0.10;;;;;;;;;;4938518;29;20296;-62
2023/10/02 10:27:41;;;;;;;0.10;0.10;;;;;;;;;;4938321;29;20110;-61
2023/10/02 10:30:20;;;;;;;0.10;0.10;;;;;;;;;;4920193;29;20430;-61
2023/10/02 10:32:45;;;;;;;0.10;0.10;;;;;;;;;;4938324;29;20043;-61
2023/10/02 10:35:29;;;;;;;0.10;0.10;;;;;;;;;;4940056;29;20386;-62
2023/10/02 10:37:56;;;;;;;0.00;0.00;;;;;;;;;;4936992;29;20047;-61
2023/10/02 10:41:09;;;;;;;;;;;;;;;;;;4936871;29;20031;-61
2023/10/02 10:43:12;;;;;;;0.10;0.10;;;;;;;;;;4938252;29;19914;-62
2023/10/02 10:45:39;;;;;;;0.08;0.08;;;;;;;;;;4938389;29;20043;-61
2023/10/02 10:48:16;;;;;;;0.03;0.03;;;;;;;;;;4935245;29;20045;-62
2023/10/02 10:50:48;;;;;;;0.00;0.00;;;;;;;;;;4938926;28;20043;-62
2023/10/02 10:53:32;;;;;;;0.10;0.10;;;;;;;;;;4938415;29;20674;-60
2023/10/02 10:56:16;;;;;;;0.10;0.10;;;;;;;;;;4918883;29;20043;-60
2023/10/02 10:58:43;;;;;;;0.10;0.10;;;;;;;;;;4938345;28;20071;-60
2023/10/02 11:01:13;;;;;;;0.00;0.00;;;;;;;;;;4921360;29;20073;-61
2023/10/02 11:03:49;;;;;;;0.08;0.08;;;;;;;;;;4937946;29;20114;-61
2023/10/02 11:06:15;;;;;;;0.08;0.08;;;;;;;;;;4935981;29;20035;-61
2023/10/02 11:08:44;;;;;;;0.10;0.10;;;;;;;;;;4939070;29;20503;-63
2023/10/02 11:11:11;;;;;;;0.10;0.10;;;;;;;;;;4920976;29;20035;-62
2023/10/02 11:13:59;;;;;;;0.03;0.03;;;;;;;;;;4941081;29;20035;-62
2023/10/02 11:16:31;;;;;;;0.00;0.00;;;;;;;;;;4937848;29;20103;-63
2023/10/02 11:19:21;;;;;;;0.00;0.00;;;;;;;;;;4937582;29;20090;-65
2023/10/02 11:22:21;;;;;;;0.00;0.00;;;;;;;;;;4938162;29;20069;-60
2023/10/02 11:24:55;;;;;;;0.00;0.00;;;;;;;;;;4936398;29;20094;-59
2023/10/02 11:27:21;;;;;;;0.00;0.00;;;;;;;;;;4937988;29;20039;-60
2023/10/02 11:30:03;;;;;;;0.00;0.00;;;;;;;;;;4924330;29;20118;-61
2023/10/02 11:32:53;;;;;;;0.00;0.00;;;;;;;;;;4940534;29;20039;-61
2023/10/02 11:35:19;;;;;;;0.00;0.00;;;;;;;;;;4936481;29;20039;-62
2023/10/02 11:37:45;;;;;;;0.00;0.00;;;;;;;;;;4919462;29;20386;-61
2023/10/02 11:40:11;;;;;;;0.00;0.00;;;;;;;;;;4938220;29;20035;-61
2023/10/02 11:42:36;;;;;;;;;;;;;;;;;;4937804;29;20046;-61
2023/10/02 11:45:02;;;;;;;0.00;0.00;;;;;;;;;;4936024;29;19923;-61
2023/10/02 11:47:28;;;;;;;0.00;0.00;;;;;;;;;;4936597;28;20043;-61
2023/10/02 11:49:53;;;;;;;0.00;0.00;;;;;;;;;;4936459;28;20051;-60
2023/10/02 11:52:19;;;;;;;0.00;0.00;;;;;;;;;;4937839;29;20024;-62
2023/10/02 11:54:44;;;;;;;0.00;0.00;;;;;;;;;;4938086;29;20038;-62
2023/10/02 11:57:10;;;;;;;0.00;0.00;;;;;;;;;;4935346;29;20641;-61
2023/10/02 11:59:42;;;;;;;0.00;0.00;;;;;;;;;;4937457;29;20046;-61
2023/10/02 12:02:11;;;;;;;0.00;0.00;;;;;;;;;;4937763;29;20492;-62
2023/10/02 12:04:39;;;;;;;0.00;0.00;;;;;;;;;;4935885;29;20062;-61
2023/10/02 12:07:05;;;;;;;0.00;0.00;;;;;;;;;;4935526;29;20052;-61
2023/10/02 12:09:32;;;;;;;0.00;0.00;;;;;;;;;;4940265;29;20086;-61
2023/10/02 12:11:58;;;;;;;0.00;0.00;;;;;;;;;;4940186;28;20039;-62
2023/10/02 12:14:25;;;;;;;0.00;0.00;;;;;;;;;;4942271;28;20069;-61
2023/10/02 12:16:50;;;;;;;0.00;0.00;;;;;;;;;;4940856;29;20047;-62
2023/10/02 12:19:17;;;;;;;0.00;0.00;;;;;;;;;;4940296;29;20028;-61
2023/10/02 12:21:42;;;;;;;0.00;0.00;;;;;;;;;;4940286;28;20031;-61
2023/10/02 12:24:08;;;;;;;0.00;0.00;;;;;;;;;;4938881;29;20044;-61
2023/10/02 12:26:33;;;;;;;0.00;0.00;;;;;;;;;;4941750;29;20039;-61
2023/10/02 12:29:00;;;;;;;0.00;0.00;;;;;;;;;;4941891;29;20481;-62
2023/10/02 12:31:26;;;;;;;0.00;0.00;;;;;;;;;;4944632;28;20051;-61
2023/10/02 12:33:54;;;;;;;0.00;0.00;;;;;;;;;;4937996;29;20032;-64
2023/10/02 12:36:21;;;;;;;0.00;0.00;;;;;;;;;;4939324;29;20059;-62
2023/10/02 12:38:47;;;;;;;0.00;0.00;;;;;;;;;;4944500;29;20087;-60
2023/10/02 12:41:26;;;;;;;0.00;0.00;;;;;;;;;;4942647;29;20039;-62
2023/10/02 12:43:56;;;;;;;0.00;0.00;;;;;;;;;;4939265;29;20393;-62
2023/10/02 12:46:22;;;;;;;0.00;0.00;;;;;;;;;;4941434;29;20882;-62
2023/10/02 12:48:48;;;;;;;0.00;0.00;;;;;;;;;;4941218;29;20066;-63
2023/10/02 12:51:14;;;;;;;0.00;0.00;;;;;;;;;;4939239;29;20074;-61
2023/10/02 12:53:40;;;;;;;0.00;0.00;;;;;;;;;;4923374;29;20609;-61
2023/10/02 12:56:06;;;;;;;0.00;0.00;;;;;;;;;;4941030;29;20636;-62
2023/10/02 12:58:35;;;;;;;0.00;0.00;;;;;;;;;;4944030;28;20038;-64
2023/10/02 13:01:01;;;;;;;0.00;0.00;;;;;;;;;;4920735;29;20063;-62
2023/10/02 13:03:31;;;;;;;0.00;0.00;;;;;;;;;;4940830;29;20474;-61
2023/10/02 13:05:58;;;;;;;0.00;0.00;;;;;;;;;;4938599;29;20057;-62
2023/10/02 13:08:25;;;;;;;0.00;0.00;;;;;;;;;;4941747;29;20042;-63
2023/10/02 13:10:50;;;;;;;0.00;0.00;;;;;;;;;;4941479;29;20142;-62
2023/10/02 13:13:15;;;;;;;0.00;0.00;;;;;;;;;;4938995;29;20961;-62
2023/10/02 13:15:41;;;;;;;0.00;0.00;;;;;;;;;;4939972;29;20043;-61
2023/10/02 13:18:06;;;;;;;0.00;0.00;;;;;;;;;;4941546;29;20090;-61
2023/10/02 13:20:33;;;;;;;0.00;0.00;;;;;;;;;;4942997;29;20114;-61
2023/10/02 13:22:58;;;;;;;0.00;0.00;;;;;;;;;;4939379;28;20062;-60
2023/10/02 13:25:26;;;;;;;0.00;0.00;;;;;;;;;;4939486;29;20513;-63
2023/10/02 13:27:52;;;;;;;0.00;0.00;;;;;;;;;;4939785;29;20040;-62
2023/10/02 13:30:19;;;;;;;0.00;0.00;;;;;;;;;;4940265;29;20043;-61
2023/10/02 13:32:44;;;;;;;0.00;0.00;;;;;;;;;;4940693;29;20041;-61
2023/10/02 13:35:10;;;;;;;0.00;0.00;;;;;;;;;;4940692;29;20035;-62
2023/10/02 13:37:35;;;;;;;0.00;0.00;;;;;;;;;;4937717;29;20490;-61
2023/10/02 13:40:04;;;;;;;0.00;0.00;;;;;;;;;;4941413;29;20039;-61
2023/10/02 13:42:29;;;;;;;0.00;0.00;;;;;;;;;;4939226;29;20031;-61
2023/10/02 13:44:55;;;;;;;0.00;0.00;;;;;;;;;;4939681;29;20047;-62
2023/10/02 13:47:21;;;;;;;0.00;0.00;;;;;;;;;;4942590;29;20031;-62
2023/10/02 13:49:47;;;;;;;0.00;0.00;;;;;;;;;;4930684;28;20728;-61
2023/10/02 13:52:13;;;;;;;0.00;0.00;;;;;;;;;;4940727;29;20113;-61
2023/10/02 13:54:38;;;;;;;0.00;0.00;;;;;;;;;;4939251;29;20039;-62
2023/10/02 13:57:04;;;;;;;0.00;0.00;;;;;;;;;;4939505;29;20035;-61
2023/10/02 13:59:32;;;;;;;0.00;0.00;;;;;;;;;;4939587;28;20118;-61
2023/10/02 14:01:57;;;;;;;0.00;0.00;;;;;;;;;;4941292;29;20023;-60
2023/10/02 14:04:27;;;;;;;0.00;0.00;;;;;;;;;;4938150;29;20042;-61
2023/10/02 14:06:52;;;;;;;0.00;0.00;;;;;;;;;;4939023;29;20040;-61
2023/10/02 14:09:20;;;;;;;0.00;0.00;;;;;;;;;;4938752;29;20387;-64
2023/10/02 14:11:46;;;;;;;0.00;0.00;;;;;;;;;;4938174;29;20035;-61
2023/10/02 14:14:11;;;;;;;0.00;0.00;;;;;;;;;;4926559;29;20042;-61
2023/10/02 14:16:36;;;;;;;0.00;0.00;;;;;;;;;;4948059;29;20039;-62
2023/10/02 14:19:01;;;;;;;0.00;0.00;;;;;;;;;;4942150;28;20047;-60
2023/10/02 14:21:27;;;;;;;0.00;0.00;;;;;;;;;;4931831;28;20055;-61
2023/10/02 14:23:52;;;;;;;0.00;0.00;;;;;;;;;;4930543;28;20778;-62
2023/10/02 14:26:19;;;;;;;0.00;0.00;;;;;;;;;;4946477;29;20035;-62
2023/10/02 14:28:46;;;;;;;0.00;0.00;;;;;;;;;;4939580;29;20402;-61
2023/10/02 14:31:11;;;;;;;0.00;0.00;;;;;;;;;;4940148;28;20055;-61
2023/10/02 14:33:40;;;;;;;0.00;0.00;;;;;;;;;;4941417;28;20474;-62
2023/10/02 14:36:07;;;;;;;0.00;0.00;;;;;;;;;;4944574;28;20051;-61
2023/10/02 14:38:33;;;;;;;0.00;0.00;;;;;;;;;;4943874;28;20035;-64
2023/10/02 14:40:58;;;;;;;0.00;0.00;;;;;;;;;;4946113;28;20033;-61
2023/10/02 14:43:24;;;;;;;0.00;0.00;;;;;;;;;;4939651;28;20035;-62
2023/10/02 14:45:50;;;;;;;0.00;0.00;;;;;;;;;;4939953;28;20070;-63
2023/10/02 14:48:19;;;;;;;0.00;0.00;;;;;;;;;;4941232;28;20035;-62
2023/10/02 14:50:44;;;;;;;0.00;0.00;;;;;;;;;;4942484;28;20598;-62
2023/10/02 14:53:11;;;;;;;0.00;0.00;;;;;;;;;;4943347;28;20035;-62
2023/10/02 14:55:44;;;;;;;0.00;0.00;;;;;;;;;;4939361;28;20118;-61
2023/10/02 14:58:10;;;;;;;0.00;0.00;;;;;;;;;;4943860;28;20027;-61
2023/10/02 15:00:36;;;;;;;0.00;0.00;;;;;;;;;;4947827;28;20097;-61
2023/10/02 15:03:01;;;;;;;0.00;0.00;;;;;;;;;;4929279;28;20027;-61
2023/10/02 15:05:27;;;;;;;0.00;0.00;;;;;;;;;;4945374;28;20057;-62
2023/10/02 15:07:53;;;;;;;0.00;0.00;;;;;;;;;;4946196;28;20093;-61
2023/10/02 15:10:21;;;;;;;0.00;0.00;;;;;;;;;;4943795;28;20034;-61
2023/10/02 15:12:47;;;;;;;0.00;0.00;;;;;;;;;;4946724;28;20045;-64
2023/10/02 15:15:16;;;;;;;0.00;0.00;;;;;;;;;;4940138;28;22003;-62
2023/10/02 15:17:45;;;;;;;0.00;0.00;;;;;;;;;;4931474;29;20462;-62
2023/10/02 15:20:14;;;;;;;0.00;0.00;;;;;;;;;;4943339;28;20038;-61
2023/10/02 15:22:47;;;;;;;0.00;0.00;;;;;;;;;;4945630;28;20043;-61
2023/10/02 15:25:14;;;;;;;0.00;0.00;;;;;;;;;;4940603;29;20564;-62
2023/10/02 15:27:41;;;;;;;0.00;0.00;;;;;;;;;;4924553;29;20171;-62
2023/10/02 15:30:10;;;;;;;0.00;0.00;;;;;;;;;;4936018;29;20037;-61
2023/10/02 15:32:36;;;;;;;0.00;0.00;;;;;;;;;;4936613;28;20107;-61
2023/10/02 15:35:05;;;;;;;0.00;0.00;;;;;;;;;;4913009;29;20063;-61